地図

経路データ

SID SEASON NUMBER BASIN SUBBASIN NAME ISO_TIME NATURE LAT LON WMO_WIND WMO_PRES WMO_AGENCY TRACK_TYPE DIST2LAND LANDFALL IFLAG USA_AGENCY USA_ATCF_ID USA_LAT USA_LON USA_RECORD USA_STATUS USA_WIND USA_PRES USA_SSHS USA_R34_NE USA_R34_SE USA_R34_SW USA_R34_NW USA_R50_NE USA_R50_SE USA_R50_SW USA_R50_NW USA_R64_NE USA_R64_SE USA_R64_SW USA_R64_NW USA_POCI USA_ROCI USA_RMW USA_EYE TOKYO_LAT TOKYO_LON TOKYO_GRADE TOKYO_WIND TOKYO_PRES TOKYO_R50_DIR TOKYO_R50_LONG TOKYO_R50_SHORT TOKYO_R30_DIR TOKYO_R30_LONG TOKYO_R30_SHORT TOKYO_LAND CMA_LAT CMA_LON CMA_CAT CMA_WIND CMA_PRES HKO_LAT HKO_LON HKO_CAT HKO_WIND HKO_PRES NEWDELHI_LAT NEWDELHI_LON NEWDELHI_GRADE NEWDELHI_WIND NEWDELHI_PRES NEWDELHI_CI NEWDELHI_DP NEWDELHI_POCI REUNION_LAT REUNION_LON REUNION_TYPE REUNION_WIND REUNION_PRES REUNION_TNUM REUNION_CI REUNION_RMW REUNION_R34_NE REUNION_R34_SE REUNION_R34_SW REUNION_R34_NW REUNION_R50_NE REUNION_R50_SE REUNION_R50_SW REUNION_R50_NW REUNION_R64_NE REUNION_R64_SE REUNION_R64_SW REUNION_R64_NW BOM_LAT BOM_LON BOM_TYPE BOM_WIND BOM_PRES BOM_TNUM BOM_CI BOM_RMW BOM_R34_NE BOM_R34_SE BOM_R34_SW BOM_R34_NW BOM_R50_NE BOM_R50_SE BOM_R50_SW BOM_R50_NW BOM_R64_NE BOM_R64_SE BOM_R64_SW BOM_R64_NW BOM_ROCI BOM_POCI BOM_EYE BOM_POS_METHOD BOM_PRES_METHOD NADI_LAT NADI_LON NADI_CAT NADI_WIND NADI_PRES WELLINGTON_LAT WELLINGTON_LON WELLINGTON_WIND WELLINGTON_PRES DS824_LAT DS824_LON DS824_STAGE DS824_WIND DS824_PRES TD9636_LAT TD9636_LON TD9636_STAGE TD9636_WIND TD9636_PRES TD9635_LAT TD9635_LON TD9635_WIND TD9635_PRES TD9635_ROCI NEUMANN_LAT NEUMANN_LON NEUMANN_CLASS NEUMANN_WIND NEUMANN_PRES MLC_LAT MLC_LON MLC_CLASS MLC_WIND MLC_PRES USA_GUST BOM_GUST BOM_GUST_PER REUNION_GUST REUNION_GUST_PER USA_SEAHGT USA_SEARAD_NE USA_SEARAD_SE USA_SEARAD_SW USA_SEARAD_NW STORM_SPEED STORM_DIR
1859101S10451 1859 10 SI WA NOT_NAMED 1859-04-10 18:00:00 NR -10.3000 90.5000 main 1338 1338 __________O___ -1 -10.3000 90.5000 7 7 269
1859101S10451 1859 10 SI WA NOT_NAMED 1859-04-10 21:00:00 NR -10.3078 90.1264 main 1369 1369 __________P___ -1 -10.3078 90.1264 7 8 268
1859101S10451 1859 10 SI MM NOT_NAMED 1859-04-11 00:00:00 NR -10.3224 89.7323 main 1401 1401 __________P___ -1 -10.3224 89.7323 7 8 267
1859101S10451 1859 10 SI MM NOT_NAMED 1859-04-11 03:00:00 NR -10.3508 89.2971 main 1441 1441 __________P___ -1 -10.3508 89.2971 7 9 265
1859101S10451 1859 10 SI MM NOT_NAMED 1859-04-11 06:00:00 NR -10.4000 88.8000 main 1482 1482 __________O___ -1 -10.4000 88.8000 7 11 263
1859101S10451 1859 10 SI MM NOT_NAMED 1859-04-11 09:00:00 NR -10.4746 88.2285 main 1539 1539 __________P___ -1 -10.4746 88.2285 7 12 262
1859101S10451 1859 10 SI MM NOT_NAMED 1859-04-11 12:00:00 NR -10.5702 87.6025 main 1598 1598 __________P___ -1 -10.5702 87.6025 7 13 261
1859101S10451 1859 10 SI MM NOT_NAMED 1859-04-11 15:00:00 NR -10.6807 86.9502 main 1657 1657 __________P___ -1 -10.6807 86.9502 7 13 260
1859101S10451 1859 10 SI MM NOT_NAMED 1859-04-11 18:00:00 NR -10.8000 86.3000 main 1725 1725 __________O___ -1 -10.8000 86.3000 7 13 260
1859101S10451 1859 10 SI MM NOT_NAMED 1859-04-11 21:00:00 NR -10.9093 85.6886 main 1786 1786 __________P___ -1 -10.9093 85.6886 7 12 259
1859101S10451 1859 10 SI MM NOT_NAMED 1859-04-12 00:00:00 NR -11.0270 85.0847 main 1846 1846 __________P___ -1 -11.0270 85.0847 7 12 258
1859101S10451 1859 10 SI MM NOT_NAMED 1859-04-12 03:00:00 NR -11.1562 84.4885 main 1913 1913 __________P___ -1 -11.1562 84.4885 7 12 257
1859101S10451 1859 10 SI MM NOT_NAMED 1859-04-12 06:00:00 NR -11.3000 83.9000 main 1961 1957 __________O___ -1 -11.3000 83.9000 7 12 257
1859101S10451 1859 10 SI MM NOT_NAMED 1859-04-12 09:00:00 NR -11.4278 83.3092 main 1961 1959 __________P___ -1 -11.4278 83.3092 7 12 257
1859101S10451 1859 10 SI MM NOT_NAMED 1859-04-12 12:00:00 NR -11.5747 82.7267 main 1974 1972 __________P___ -1 -11.5747 82.7267 7 12 254
1859101S10451 1859 10 SI MM NOT_NAMED 1859-04-12 15:00:00 NR -11.7591 82.1559 main 1991 1988 __________P___ -1 -11.7591 82.1559 7 12 249
1859101S10451 1859 10 SI MM NOT_NAMED 1859-04-12 18:00:00 NR -12.0000 81.6000 main 2008 2008 __________O___ -1 -12.0000 81.6000 7 12 243
1859101S10451 1859 10 SI MM NOT_NAMED 1859-04-12 21:00:00 NR -12.3097 81.0607 main 2039 2039 __________P___ -1 -12.3097 81.0607 7 12 237
1859101S10451 1859 10 SI MM NOT_NAMED 1859-04-13 00:00:00 NR -12.6757 80.5343 main 2083 2083 __________P___ -1 -12.6757 80.5343 7 13 233
1859101S10451 1859 10 SI MM NOT_NAMED 1859-04-13 03:00:00 NR -13.0788 80.0156 main 2129 2129 __________P___ -1 -13.0788 80.0156 7 13 231
1859101S10451 1859 10 SI MM NOT_NAMED 1859-04-13 06:00:00 NR -13.5000 79.5000 main 2176 __________O___ -1 -13.5000 79.5000 7 13 230

IBTrACS Databaseについて

本データベースは、米国NOAAが公開する1842年以降の世界の熱帯低気圧のベストトラックデータアーカイブInternational Best Track Archive for Climate Stewardship (IBTrACS)を、ウェブで閲覧しやすい形式に変換したものです。

最終更新日:2021-10-25